createdAt,value
2018-12-21T00:02:29.446Z,5.20
2018-12-21T00:04:58.761Z,3.30
2018-12-21T00:07:28.314Z,6.20
2018-12-21T00:10:04.172Z,7.13
2018-12-21T00:12:33.787Z,6.30
2018-12-21T00:15:04.530Z,3.33
2018-12-21T00:17:34.763Z,3.97
2018-12-21T00:20:05.039Z,4.23
2018-12-21T00:22:34.404Z,2.60
2018-12-21T00:25:03.873Z,2.40
2018-12-21T00:27:33.156Z,3.40
2018-12-21T00:30:02.789Z,3.57
2018-12-21T00:32:37.608Z,3.87
2018-12-21T00:35:12.235Z,3.03
2018-12-21T00:37:47.150Z,2.37
2018-12-21T00:40:22.259Z,3.23
2018-12-21T00:43:56.215Z,2.30
2018-12-21T00:46:28.772Z,4.70
2018-12-21T00:48:58.274Z,4.67
2018-12-21T00:51:30.328Z,3.90
2018-12-21T00:53:59.231Z,4.00
2018-12-21T00:56:29.843Z,2.60
2018-12-21T00:58:59.260Z,2.97
2018-12-21T01:01:29.530Z,2.80
2018-12-21T01:03:59.043Z,3.13
2018-12-21T01:06:28.974Z,2.50
2018-12-21T01:08:58.666Z,3.23
2018-12-21T01:11:29.166Z,2.30
2018-12-21T01:13:59.153Z,3.47
2018-12-21T01:16:29.426Z,4.17
2018-12-21T01:18:58.691Z,3.00
2018-12-21T01:21:29.784Z,2.83
2018-12-21T01:23:59.395Z,2.30
2018-12-21T01:26:28.988Z,3.03
2018-12-21T01:28:58.697Z,2.60
2018-12-21T01:31:28.197Z,5.20
2018-12-21T01:33:57.682Z,2.77
2018-12-21T01:36:27.410Z,2.73
2018-12-21T01:38:56.956Z,2.83
2018-12-21T01:41:26.426Z,2.13
2018-12-21T01:43:55.747Z,2.73
2018-12-21T01:46:25.212Z,2.70
2018-12-21T01:48:54.692Z,3.30
2018-12-21T01:51:24.201Z,2.03
2018-12-21T01:53:53.763Z,4.00
2018-12-21T01:56:23.429Z,1.87
2018-12-21T01:58:52.934Z,2.93
2018-12-21T02:01:23.253Z,3.00
2018-12-21T02:03:52.685Z,2.30
2018-12-21T02:06:22.377Z,1.87
2018-12-21T02:08:51.646Z,2.07
2018-12-21T02:11:20.976Z,2.27
2018-12-21T02:13:50.619Z,2.03
2018-12-21T02:16:20.104Z,2.77
2018-12-21T02:18:49.881Z,2.53
2018-12-21T02:21:19.182Z,4.00
2018-12-21T02:23:48.480Z,3.20
2018-12-21T02:26:17.984Z,3.10
2018-12-21T02:28:47.406Z,4.33
2018-12-21T02:31:16.678Z,3.20
2018-12-21T02:33:46.234Z,2.47
2018-12-21T02:36:16.167Z,3.07
2018-12-21T02:38:45.727Z,2.80
2018-12-21T02:41:16.122Z,1.97
2018-12-21T02:43:45.448Z,4.20
2018-12-21T02:46:14.812Z,1.67
2018-12-21T02:48:44.173Z,3.77
2018-12-21T02:51:13.701Z,2.10
2018-12-21T02:53:43.076Z,1.63
2018-12-21T02:56:12.311Z,2.70
2018-12-21T02:58:41.629Z,1.97
2018-12-21T03:01:10.943Z,3.00
2018-12-21T03:03:40.627Z,2.40
2018-12-21T03:06:09.948Z,2.23
2018-12-21T03:08:39.259Z,1.93
2018-12-21T03:11:08.739Z,2.30
2018-12-21T03:13:38.846Z,1.30
2018-12-21T03:16:08.036Z,1.60
2018-12-21T03:18:37.733Z,1.67
2018-12-21T03:21:07.278Z,1.43
2018-12-21T03:23:36.664Z,1.73
2018-12-21T03:26:06.136Z,2.63
2018-12-21T03:28:35.566Z,1.60
2018-12-21T03:31:05.395Z,1.00
2018-12-21T03:33:34.823Z,1.00
2018-12-21T03:36:04.985Z,4.23
2018-12-21T03:38:34.390Z,2.27
2018-12-21T03:41:03.924Z,3.20
2018-12-21T03:43:33.220Z,2.60
2018-12-21T03:46:02.531Z,1.37
2018-12-21T03:48:31.815Z,1.23
2018-12-21T03:51:01.237Z,3.13
2018-12-21T03:53:32.383Z,4.50
2018-12-21T03:56:01.805Z,6.80
2018-12-21T03:58:31.541Z,3.10
2018-12-21T04:01:01.808Z,1.70
2018-12-21T04:03:32.125Z,4.60
2018-12-21T04:06:02.893Z,1.07
2018-12-21T04:08:32.326Z,2.20
2018-12-21T04:11:01.957Z,4.63
2018-12-21T04:13:31.530Z,1.23
2018-12-21T04:16:01.830Z,4.23
2018-12-21T04:18:31.204Z,13.10
2018-12-21T04:21:00.529Z,4.87
2018-12-21T04:23:31.642Z,3.37
2018-12-21T04:26:01.795Z,7.53
2018-12-21T04:28:31.260Z,2.60
2018-12-21T04:31:00.545Z,0.73
2018-12-21T04:33:30.157Z,1.00
2018-12-21T04:35:59.528Z,1.73
2018-12-21T04:38:28.952Z,5.40
2018-12-21T04:40:58.269Z,1.63
2018-12-21T04:43:27.546Z,2.20
2018-12-21T04:45:56.928Z,1.03
2018-12-21T04:48:26.469Z,2.20
2018-12-21T04:50:56.055Z,0.70
2018-12-21T04:53:25.594Z,3.27
2018-12-21T04:55:55.084Z,2.90
2018-12-21T04:58:24.692Z,2.50
2018-12-21T05:00:55.354Z,4.87
2018-12-21T05:03:24.949Z,0.80
2018-12-21T05:05:54.425Z,1.10
2018-12-21T05:08:23.928Z,6.20
2018-12-21T05:10:54.665Z,1.30
2018-12-21T05:13:25.624Z,28.23
2018-12-21T05:15:55.699Z,4.80
2018-12-21T05:18:25.006Z,1.90
2018-12-21T05:20:55.102Z,6.57
2018-12-21T05:23:24.456Z,7.00
2018-12-21T05:25:53.930Z,6.47
2018-12-21T05:28:23.441Z,15.90
2018-12-21T05:30:53.270Z,4.50
2018-12-21T05:33:22.631Z,4.37
2018-12-21T05:35:52.090Z,1.77
2018-12-21T05:38:21.548Z,3.97
2018-12-21T05:40:50.990Z,2.33
2018-12-21T05:43:20.471Z,2.67
2018-12-21T05:45:49.890Z,1.73
2018-12-21T05:48:19.201Z,1.10
2018-12-21T05:50:48.662Z,22.03
2018-12-21T05:53:18.087Z,61.03
2018-12-21T05:55:47.545Z,29.23
2018-12-21T05:58:17.180Z,5.60
2018-12-21T06:00:46.644Z,2.87
2018-12-21T06:03:16.098Z,4.43
2018-12-21T06:05:45.585Z,3.13
2018-12-21T06:08:14.890Z,3.57
2018-12-21T06:10:44.251Z,13.07
2018-12-21T06:13:13.503Z,19.47
2018-12-21T06:15:43.078Z,4.50
2018-12-21T06:18:12.517Z,3.33
2018-12-21T06:20:42.891Z,2.17
2018-12-21T06:23:12.365Z,5.43
2018-12-21T06:25:41.982Z,5.13
2018-12-21T06:28:11.717Z,3.90
2018-12-21T06:30:41.174Z,1.93
2018-12-21T06:33:10.547Z,4.13
2018-12-21T06:35:40.070Z,2.10
2018-12-21T06:38:09.757Z,2.30
2018-12-21T06:40:39.060Z,1.70
2018-12-21T06:43:08.364Z,1.50
2018-12-21T06:45:37.647Z,4.03
2018-12-21T06:48:07.664Z,5.57
2018-12-21T06:50:37.288Z,2.70
2018-12-21T06:53:06.590Z,1.90
2018-12-21T06:55:36.072Z,3.27
2018-12-21T06:58:06.517Z,2.63
2018-12-21T07:00:35.908Z,3.33
2018-12-21T07:03:05.229Z,2.80
2018-12-21T07:05:34.704Z,1.53
2018-12-21T07:08:04.369Z,2.03
2018-12-21T07:10:33.768Z,7.13
2018-12-21T07:13:03.541Z,4.00
2018-12-21T07:15:32.821Z,3.17
2018-12-21T07:18:02.600Z,1.97
2018-12-21T07:20:32.039Z,2.00
2018-12-21T07:23:01.857Z,3.27
2018-12-21T07:25:32.595Z,3.97
2018-12-21T07:28:03.137Z,2.90
2018-12-21T07:30:32.515Z,2.77
2018-12-21T07:33:01.832Z,2.00
2018-12-21T07:35:31.212Z,2.23
2018-12-21T07:38:00.460Z,3.37
2018-12-21T07:40:30.121Z,3.23
2018-12-21T07:42:59.444Z,3.03
2018-12-21T07:45:28.722Z,2.20
2018-12-21T07:47:58.056Z,3.90
2018-12-21T07:50:27.523Z,1.27
2018-12-21T07:52:58.102Z,1.80
2018-12-21T07:55:27.882Z,4.93
2018-12-21T07:57:58.652Z,2.73
2018-12-21T08:00:28.087Z,6.90
2018-12-21T08:02:57.464Z,12.23
2018-12-21T08:05:26.913Z,3.40
2018-12-21T08:07:56.220Z,1.50
2018-12-21T08:10:25.774Z,1.07
2018-12-21T08:12:55.107Z,1.37
2018-12-21T08:15:24.793Z,2.67
2018-12-21T08:17:54.320Z,2.03
2018-12-21T08:20:24.029Z,7.10
2018-12-21T08:22:53.218Z,1.43
2018-12-21T08:25:22.542Z,4.20
2018-12-21T08:27:51.830Z,2.23
2018-12-21T08:30:21.137Z,1.67
2018-12-21T08:32:50.415Z,1.63
2018-12-21T08:35:19.720Z,5.20
2018-12-21T08:37:49.823Z,1.87
2018-12-21T08:40:19.182Z,2.00
2018-12-21T08:42:48.757Z,2.43
2018-12-21T08:45:18.070Z,2.83
2018-12-21T08:47:47.549Z,6.57
2018-12-21T08:50:16.880Z,8.33
2018-12-21T08:52:46.226Z,10.93
2018-12-21T08:55:15.586Z,2.90
2018-12-21T08:57:45.088Z,4.27
2018-12-21T09:00:14.770Z,7.87
2018-12-21T09:02:44.293Z,7.10
2018-12-21T09:05:13.569Z,5.80
2018-12-21T09:07:42.893Z,9.50
2018-12-21T09:10:12.473Z,11.70
2018-12-21T09:12:41.915Z,8.73
2018-12-21T09:15:13.436Z,7.90
2018-12-21T09:17:42.880Z,7.60
2018-12-21T09:20:12.345Z,11.50
2018-12-21T09:22:41.867Z,13.47
2018-12-21T09:25:11.011Z,17.00
2018-12-21T09:27:40.473Z,6.27
2018-12-21T09:30:11.184Z,7.90
2018-12-21T09:32:40.694Z,9.00
2018-12-21T09:35:10.229Z,9.17
2018-12-21T09:37:39.921Z,8.67
2018-12-21T09:40:10.247Z,11.07
2018-12-21T09:42:39.955Z,4.93
2018-12-21T09:45:09.742Z,5.23
2018-12-21T09:47:39.818Z,8.03
2018-12-21T09:50:09.884Z,4.90
2018-12-21T09:52:39.566Z,3.30
2018-12-21T09:55:09.004Z,12.90
2018-12-21T09:57:38.270Z,3.67
2018-12-21T10:00:09.230Z,7.33
2018-12-21T10:02:39.696Z,6.70
2018-12-21T10:05:10.254Z,5.53
2018-12-21T10:07:39.661Z,4.60
2018-12-21T10:10:09.190Z,4.40
2018-12-21T10:12:38.859Z,4.67
2018-12-21T10:15:08.858Z,6.87
2018-12-21T10:17:38.367Z,3.43
2018-12-21T10:20:08.548Z,8.53
2018-12-21T10:22:37.942Z,10.00
2018-12-21T10:25:07.433Z,3.90
2018-12-21T10:27:36.937Z,10.27
2018-12-21T10:30:07.663Z,11.60
2018-12-21T10:32:36.989Z,10.20
2018-12-21T10:35:06.245Z,11.23
2018-12-21T10:37:35.596Z,7.67
2018-12-21T10:40:05.998Z,8.37
2018-12-21T10:42:35.417Z,10.93
2018-12-21T10:45:05.093Z,12.50
2018-12-21T10:47:34.516Z,8.17
2018-12-21T10:50:05.807Z,12.50
2018-12-21T10:52:35.181Z,10.63
2018-12-21T10:55:04.445Z,9.57
2018-12-21T10:57:33.846Z,8.00
2018-12-21T11:00:04.082Z,11.97
2018-12-21T11:02:33.697Z,13.30
2018-12-21T11:05:04.113Z,15.87
2018-12-21T11:07:33.728Z,13.60
2018-12-21T11:10:03.214Z,11.27
2018-12-21T11:12:32.718Z,7.37
2018-12-21T11:15:02.006Z,11.30
2018-12-21T11:17:32.566Z,6.20
2018-12-21T11:20:01.819Z,16.60
2018-12-21T11:22:32.603Z,11.10
2018-12-21T11:25:01.922Z,10.43
2018-12-21T11:27:31.597Z,16.80
2018-12-21T11:30:01.512Z,10.67
2018-12-21T11:32:31.093Z,10.17
2018-12-21T11:35:00.660Z,18.40
2018-12-21T11:37:30.126Z,18.20
2018-12-21T11:39:59.541Z,19.63
2018-12-21T11:42:28.927Z,15.00
2018-12-21T11:44:58.230Z,9.47
2018-12-21T11:47:27.812Z,10.87
2018-12-21T11:49:57.258Z,14.70
2018-12-21T11:52:26.731Z,6.90
2018-12-21T11:54:56.058Z,5.80
2018-12-21T11:57:25.604Z,9.73
2018-12-21T11:59:55.084Z,6.60
2018-12-21T12:02:24.635Z,19.57
2018-12-21T12:04:54.297Z,22.73
2018-12-21T12:07:23.803Z,15.93
2018-12-21T12:09:53.336Z,6.67
2018-12-21T12:12:22.941Z,7.77
2018-12-21T12:14:52.422Z,11.53
2018-12-21T12:17:21.835Z,11.50
2018-12-21T12:19:51.546Z,7.13
2018-12-21T12:22:21.051Z,11.23
2018-12-21T12:24:52.844Z,7.57
2018-12-21T12:27:22.180Z,6.60
2018-12-21T12:29:51.543Z,10.60
2018-12-21T12:32:20.886Z,6.40
2018-12-21T12:34:50.148Z,7.63
2018-12-21T12:37:19.572Z,3.80
2018-12-21T12:39:48.807Z,6.03
2018-12-21T12:42:18.599Z,5.10
2018-12-21T12:44:48.110Z,5.13
2018-12-21T12:47:17.385Z,6.40
2018-12-21T12:49:46.670Z,19.90
2018-12-21T12:52:16.255Z,13.33
2018-12-21T12:54:45.626Z,9.23
2018-12-21T12:57:14.991Z,13.00
2018-12-21T12:59:45.524Z,8.50
2018-12-21T13:02:14.831Z,8.83
2018-12-21T13:04:44.723Z,9.23
2018-12-21T13:07:14.241Z,7.37
2018-12-21T13:09:43.802Z,10.73
2018-12-21T13:12:13.645Z,5.60
2018-12-21T13:14:42.949Z,12.13
2018-12-21T13:17:12.250Z,10.27
2018-12-21T13:19:41.527Z,11.20
2018-12-21T13:22:10.850Z,13.83
2018-12-21T13:24:40.342Z,8.53
2018-12-21T13:27:09.634Z,9.70
2018-12-21T13:29:39.145Z,6.53
2018-12-21T13:32:09.028Z,6.00
2018-12-21T13:34:38.574Z,7.33
2018-12-21T13:37:07.882Z,13.73
2018-12-21T13:39:37.198Z,8.57
2018-12-21T13:42:06.667Z,8.40
2018-12-21T13:44:35.984Z,12.97
2018-12-21T13:47:05.236Z,9.37
2018-12-21T13:49:34.608Z,21.30
2018-12-21T13:52:04.387Z,16.40
2018-12-21T13:54:34.833Z,17.80
2018-12-21T13:57:04.376Z,31.40
2018-12-21T13:59:33.917Z,38.30
2018-12-21T14:02:03.600Z,17.70
2018-12-21T14:04:32.940Z,34.23
2018-12-21T14:07:03.056Z,22.20
2018-12-21T14:10:35.007Z,21.47
2018-12-21T14:13:04.354Z,19.93
2018-12-21T14:15:33.994Z,13.30
2018-12-21T14:18:04.101Z,18.43
2018-12-21T14:20:33.461Z,13.30
2018-12-21T14:23:04.039Z,24.50
2018-12-21T14:25:33.723Z,17.13
2018-12-21T14:28:03.663Z,14.23
2018-12-21T14:30:33.100Z,10.70
2018-12-21T14:33:02.483Z,17.00
2018-12-21T14:35:31.830Z,14.27
2018-12-21T14:38:01.780Z,22.90
2018-12-21T14:40:31.249Z,22.70
2018-12-21T14:43:00.725Z,18.67
2018-12-21T14:45:30.025Z,18.73
2018-12-21T14:47:59.321Z,18.03
2018-12-21T14:50:28.621Z,11.87
2018-12-21T14:52:58.272Z,14.03
2018-12-21T14:55:27.634Z,13.70
2018-12-21T14:57:56.913Z,15.80
2018-12-21T15:00:26.232Z,12.47
2018-12-21T15:02:55.499Z,18.47
2018-12-21T15:05:25.010Z,35.53
2018-12-21T15:07:54.506Z,24.80
2018-12-21T15:10:23.901Z,13.57
2018-12-21T15:12:53.455Z,4.43
2018-12-21T15:15:23.136Z,8.10
2018-12-21T15:17:53.898Z,18.30
2018-12-21T15:20:23.573Z,17.30
2018-12-21T15:22:53.004Z,12.77
2018-12-21T15:25:22.466Z,12.60
2018-12-21T15:27:51.961Z,30.90
2018-12-21T15:30:21.252Z,30.40
2018-12-21T15:32:50.590Z,16.03
2018-12-21T15:35:19.904Z,24.33
2018-12-21T15:37:49.391Z,57.10
2018-12-21T15:40:18.770Z,10.43
2018-12-21T15:42:48.217Z,17.00
2018-12-21T15:45:17.678Z,5.23
2018-12-21T15:47:47.208Z,5.23
2018-12-21T15:50:16.730Z,5.10
2018-12-21T15:52:46.235Z,9.50
2018-12-21T15:55:15.750Z,13.60
2018-12-21T15:57:45.291Z,11.13
2018-12-21T16:00:16.784Z,7.30
2018-12-21T16:02:49.434Z,6.40
2018-12-21T16:05:19.020Z,1.60
2018-12-21T16:07:48.562Z,3.53
2018-12-21T16:10:18.064Z,4.70
2018-12-21T16:12:47.567Z,1.83
2018-12-21T16:15:17.073Z,4.60
2018-12-21T16:17:46.665Z,5.50
2018-12-21T16:20:16.309Z,5.67
2018-12-21T16:22:45.566Z,5.77
2018-12-21T16:25:14.876Z,5.33
2018-12-21T16:27:44.372Z,3.20
2018-12-21T16:30:13.686Z,5.40
2018-12-21T16:32:43.244Z,3.37
2018-12-21T16:35:12.585Z,4.57
2018-12-21T16:37:41.984Z,12.37
2018-12-21T16:40:11.676Z,25.93
2018-12-21T16:42:41.459Z,7.27
2018-12-21T16:45:11.117Z,6.90
2018-12-21T16:47:40.989Z,6.60
2018-12-21T16:50:11.378Z,11.57
2018-12-21T16:52:41.069Z,4.77
2018-12-21T16:55:10.423Z,5.60
2018-12-21T16:57:39.870Z,3.30
2018-12-21T17:00:11.230Z,3.63
2018-12-21T17:02:40.808Z,6.00
2018-12-21T17:05:10.303Z,4.00
2018-12-21T17:07:39.836Z,13.73
2018-12-21T17:10:11.523Z,10.30
2018-12-21T17:12:40.988Z,5.17
2018-12-21T17:15:10.636Z,2.70
2018-12-21T17:17:40.150Z,1.70
2018-12-21T17:20:09.910Z,1.43
2018-12-21T17:22:39.618Z,1.40
2018-12-21T17:25:10.345Z,2.50
2018-12-21T17:27:39.897Z,1.77
2018-12-21T17:30:10.574Z,2.13
2018-12-21T17:32:39.980Z,1.20
2018-12-21T17:35:09.668Z,6.27
2018-12-21T17:37:40.417Z,1.70
2018-12-21T17:40:10.516Z,4.83
2018-12-21T17:42:41.069Z,3.70
2018-12-21T17:45:11.493Z,3.70
2018-12-21T17:47:40.734Z,1.90
2018-12-21T17:50:10.856Z,5.17
2018-12-21T17:52:40.465Z,3.13
2018-12-21T17:55:10.008Z,17.60
2018-12-21T17:57:39.244Z,7.83
2018-12-21T18:00:13.855Z,3.43
2018-12-21T18:02:44.275Z,4.10
2018-12-21T18:05:13.506Z,1.93
2018-12-21T18:07:42.973Z,2.20
2018-12-21T18:10:12.389Z,8.37
2018-12-21T18:12:41.816Z,8.20
2018-12-21T18:15:11.273Z,1.90
2018-12-21T18:17:40.884Z,4.43
2018-12-21T18:20:11.469Z,2.37
2018-12-21T18:22:42.127Z,3.73
2018-12-21T18:25:27.506Z,3.73
2018-12-21T18:27:59.477Z,2.10
2018-12-21T18:30:31.125Z,7.43
2018-12-21T18:33:10.233Z,5.67
2018-12-21T18:35:33.107Z,2.40
2018-12-21T18:38:04.067Z,3.10
2018-12-21T18:40:33.731Z,3.50
2018-12-21T18:43:03.373Z,2.10
2018-12-21T18:45:32.955Z,3.20
2018-12-21T18:48:02.953Z,3.43
2018-12-21T18:50:32.573Z,4.47
2018-12-21T18:53:02.678Z,3.43
2018-12-21T18:55:32.156Z,1.97
2018-12-21T18:58:01.649Z,2.80
2018-12-21T19:00:30.983Z,5.80
2018-12-21T19:03:00.489Z,2.27
2018-12-21T19:05:30.999Z,4.90
2018-12-21T19:08:00.437Z,3.57
2018-12-21T19:10:31.865Z,4.27
2018-12-21T19:13:01.622Z,2.80
2018-12-21T19:15:31.075Z,1.47
2018-12-21T19:18:02.553Z,3.97
2018-12-21T19:20:31.924Z,4.50
2018-12-21T19:23:01.756Z,11.13
2018-12-21T19:25:31.119Z,5.63
2018-12-21T19:28:00.610Z,4.30
2018-12-21T19:30:31.415Z,4.40
2018-12-21T19:33:00.939Z,2.03
2018-12-21T19:35:30.391Z,1.30
2018-12-21T19:38:00.026Z,1.30
2018-12-21T19:40:30.224Z,5.00
2018-12-21T19:43:00.062Z,1.20
2018-12-21T19:45:30.749Z,1.20
2018-12-21T19:48:00.156Z,4.43
2018-12-21T19:50:29.788Z,5.83
2018-12-21T19:52:59.155Z,2.00
2018-12-21T19:56:39.361Z,1.70
2018-12-21T19:59:09.004Z,2.30
2018-12-21T20:01:38.893Z,2.20
2018-12-21T20:04:08.197Z,2.63
2018-12-21T20:06:37.853Z,2.40
2018-12-21T20:09:07.621Z,2.77
2018-12-21T20:11:38.665Z,2.70
2018-12-21T20:14:08.365Z,2.13
2018-12-21T20:16:37.643Z,1.67
2018-12-21T20:19:07.022Z,7.93
2018-12-21T20:21:36.726Z,2.73
2018-12-21T20:24:06.194Z,2.40
2018-12-21T20:26:36.764Z,2.63
2018-12-21T20:29:06.798Z,2.80
2018-12-21T20:31:36.418Z,1.87
2018-12-21T20:34:05.940Z,2.70
2018-12-21T20:36:35.279Z,1.43
2018-12-21T20:39:07.264Z,3.53
2018-12-21T20:41:37.133Z,3.07
2018-12-21T20:44:06.922Z,2.17
2018-12-21T20:46:36.351Z,2.20
2018-12-21T20:49:05.894Z,3.57
2018-12-21T20:51:35.307Z,2.93
2018-12-21T20:54:05.822Z,1.83
2018-12-21T20:56:35.347Z,3.67
2018-12-21T20:59:07.262Z,1.70
2018-12-21T21:01:36.576Z,2.30
2018-12-21T21:04:06.222Z,2.20
2018-12-21T21:06:35.752Z,2.93
2018-12-21T21:09:06.339Z,3.00
2018-12-21T21:11:36.402Z,4.60
2018-12-21T21:14:05.853Z,2.47
2018-12-21T21:16:35.463Z,1.87
2018-12-21T21:19:04.883Z,5.40
2018-12-21T21:21:34.432Z,1.20
2018-12-21T21:24:03.951Z,3.27
2018-12-21T21:26:33.677Z,1.90
2018-12-21T21:29:04.355Z,2.50
2018-12-21T21:31:34.893Z,4.87
2018-12-21T21:34:04.622Z,1.57
2018-12-21T21:36:34.166Z,2.20
2018-12-21T21:39:05.116Z,1.40
2018-12-21T21:41:34.637Z,2.40
2018-12-21T21:44:04.633Z,1.20
2018-12-21T21:46:33.886Z,1.30
2018-12-21T21:49:03.627Z,0.93
2018-12-21T21:51:33.265Z,2.10
2018-12-21T21:54:03.037Z,4.20
2018-12-21T21:56:32.543Z,1.40
2018-12-21T21:59:02.424Z,3.53
2018-12-21T22:01:32.101Z,1.70
2018-12-21T22:04:01.730Z,3.70
2018-12-21T22:06:31.276Z,1.00
2018-12-21T22:09:00.898Z,1.13
2018-12-21T22:11:30.528Z,1.00
2018-12-21T22:13:59.842Z,1.63
2018-12-21T22:16:29.973Z,2.63
2018-12-21T22:18:59.516Z,2.30
2018-12-21T22:21:29.633Z,1.83
2018-12-21T22:23:59.104Z,4.30
2018-12-21T22:26:28.543Z,1.37
2018-12-21T22:28:57.887Z,1.40
2018-12-21T22:31:27.349Z,2.07
2018-12-21T22:33:57.531Z,2.20
2018-12-21T22:36:27.071Z,7.90
2018-12-21T22:38:56.501Z,14.93
2018-12-21T22:41:26.081Z,15.87
2018-12-21T22:43:56.007Z,6.77
2018-12-21T22:46:25.583Z,3.97
2018-12-21T22:48:55.026Z,6.13
2018-12-21T22:51:24.433Z,10.23
2018-12-21T22:53:53.983Z,2.30
2018-12-21T22:56:23.382Z,2.50
2018-12-21T22:58:52.903Z,2.07
2018-12-21T23:01:22.579Z,3.10
2018-12-21T23:03:52.064Z,2.57
2018-12-21T23:06:21.517Z,1.90
2018-12-21T23:08:50.851Z,3.37
2018-12-21T23:11:20.336Z,3.03
2018-12-21T23:13:49.637Z,1.70
2018-12-21T23:16:19.673Z,2.00
2018-12-21T23:18:49.036Z,2.10
2018-12-21T23:21:18.374Z,4.20
2018-12-21T23:23:47.642Z,8.50
2018-12-21T23:26:17.215Z,5.10
2018-12-21T23:28:47.495Z,4.13
2018-12-21T23:31:16.802Z,2.10
2018-12-21T23:33:46.282Z,1.67
2018-12-21T23:36:15.853Z,2.13
2018-12-21T23:38:45.581Z,2.37
2018-12-21T23:41:14.969Z,1.77
2018-12-21T23:43:44.505Z,2.67
2018-12-21T23:46:13.810Z,3.83
2018-12-21T23:48:43.392Z,2.80
2018-12-21T23:51:12.899Z,2.10
2018-12-21T23:53:42.309Z,2.30
2018-12-21T23:56:12.048Z,2.93
2018-12-21T23:58:42.951Z,2.07
